Time;durP1;ratioP1;P1;durP2;ratioP2;P2;SDS_P1;SDS_P2;PMS_P1;PMS_P2;Temp;Humidity;BMP_temperature;BMP_pressure;BME280_temperature;BME280_humidity;BME280_pressure;Samples;Min_cycle;Max_cycle;Signal;HPM_P1;HPM_P2
2022/05/01 00:02:01;;;;;;;3.08;2.85;;;12.70;99.90;;;;;;4916791;29;20309;-85
2022/05/01 00:04:30;;;;;;;4.75;3.63;;;12.70;99.90;;;;;;4916846;29;20277;-85
2022/05/01 00:07:00;;;;;;;2.90;2.70;;;12.70;99.90;;;;;;4916597;29;20214;-84
2022/05/01 00:09:28;;;;;;;3.15;2.83;;;12.70;99.90;;;;;;4916772;29;20221;-85
2022/05/01 00:11:56;;;;;;;6.60;3.38;;;12.70;99.90;;;;;;4916665;29;20322;-85
2022/05/01 00:14:25;;;;;;;3.03;2.83;;;12.70;99.90;;;;;;4916724;29;20222;-85
2022/05/01 00:16:53;;;;;;;3.08;2.83;;;12.70;99.90;;;;;;4916505;29;20222;-85
2022/05/01 00:19:21;;;;;;;3.42;3.15;;;12.70;99.90;;;;;;4916577;29;20298;-85
2022/05/01 00:22:11;;;;;;;4.95;3.75;;;12.70;99.90;;;;;;4915412;29;20241;-85
2022/05/01 00:24:39;;;;;;;3.33;3.03;;;12.70;99.90;;;;;;4916558;29;20230;-85
2022/05/01 00:27:08;;;;;;;3.53;3.22;;;12.60;99.90;;;;;;4916494;29;20233;-84
2022/05/01 00:29:36;;;;;;;4.88;4.38;;;12.60;99.90;;;;;;4916169;29;20230;-85
2022/05/01 00:32:06;;;;;;;4.53;4.10;;;12.60;99.90;;;;;;4916114;29;20274;-84
2022/05/01 00:37:22;;;;;;;4.65;4.35;;;12.60;99.90;;;;;;4916445;29;20301;-85
2022/05/01 00:39:50;;;;;;;6.50;5.15;;;12.60;99.90;;;;;;4916649;29;20219;-85
2022/05/01 00:42:19;;;;;;;5.75;5.18;;;12.60;99.90;;;;;;4916212;29;20277;-85
2022/05/01 00:44:47;;;;;;;5.68;5.15;;;12.60;99.90;;;;;;4916489;29;20237;-85
2022/05/01 00:47:17;;;;;;;7.65;6.70;;;12.60;99.90;;;;;;4915988;29;20313;-85
2022/05/01 00:49:45;;;;;;;6.28;5.78;;;12.60;99.90;;;;;;4916326;29;20248;-85
2022/05/01 00:52:15;;;;;;;6.57;5.97;;;12.60;99.90;;;;;;4915937;29;20222;-85
2022/05/01 00:54:47;;;;;;;8.05;7.30;;;12.60;99.90;;;;;;4916192;29;20233;-84
2022/05/01 00:57:16;;;;;;;5.78;5.28;;;12.60;99.90;;;;;;4916664;29;20223;-85
2022/05/01 00:59:47;;;;;;;6.55;5.95;;;12.60;99.90;;;;;;4916278;29;20241;-85
2022/05/01 01:02:16;;;;;;;6.72;5.93;;;12.50;99.90;;;;;;4916072;29;20262;-85
2022/05/01 01:04:44;;;;;;;6.28;5.68;;;12.50;99.90;;;;;;4916066;29;20236;-86
2022/05/01 01:07:13;;;;;;;7.25;5.95;;;12.50;99.90;;;;;;4915680;29;20297;-84
2022/05/01 01:09:42;;;;;;;6.38;5.78;;;12.40;99.90;;;;;;4916078;29;20257;-85
2022/05/01 01:15:09;;;;;;;7.07;6.32;;;12.40;99.90;;;;;;4916196;29;20246;-85
2022/05/01 01:17:40;;;;;;;11.10;7.63;;;12.40;99.90;;;;;;4915657;29;20222;-84
2022/05/01 01:20:12;;;;;;;7.63;6.93;;;12.30;99.90;;;;;;4915787;29;20245;-85
2022/05/01 01:22:44;;;;;;;6.82;6.28;;;12.30;99.90;;;;;;4916068;29;20318;-85
2022/05/01 01:25:13;;;;;;;6.55;5.18;;;12.30;99.90;;;;;;4916084;29;20230;-85
2022/05/01 01:27:42;;;;;;;6.90;6.10;;;12.30;99.90;;;;;;4916182;29;20241;-85
2022/05/01 01:32:57;;;;;;;7.22;6.13;;;12.30;99.90;;;;;;4915931;29;20265;-84
2022/05/01 01:35:27;;;;;;;8.20;6.93;;;12.30;99.90;;;;;;4919144;29;20313;-85
2022/05/01 01:37:57;;;;;;;6.93;6.32;;;12.30;99.90;;;;;;4919479;29;20593;-85
2022/05/01 01:40:29;;;;;;;6.65;5.93;;;12.20;99.90;;;;;;4919231;29;20245;-85
2022/05/01 01:42:59;;;;;;;6.65;5.80;;;12.20;99.90;;;;;;4919368;29;20257;-85
2022/05/01 01:45:29;;;;;;;7.15;6.45;;;12.10;99.90;;;;;;4919137;29;20294;-85
2022/05/01 01:47:57;;;;;;;6.50;5.97;;;12.20;99.90;;;;;;4919163;29;20278;-84
2022/05/01 01:50:26;;;;;;;8.38;7.55;;;12.10;99.90;;;;;;4919019;29;20242;-85
2022/05/01 01:52:56;;;;;;;10.40;6.85;;;12.10;99.90;;;;;;4918724;29;20254;-85
2022/05/01 01:55:24;;;;;;;6.13;5.55;;;12.10;99.90;;;;;;4918922;29;20298;-85
2022/05/01 01:57:53;;;;;;;7.15;6.35;;;12.00;99.90;;;;;;4918986;29;20207;-85
2022/05/01 02:00:21;;;;;;;8.05;7.22;;;12.00;99.90;;;;;;4918960;29;20237;-85
2022/05/01 02:02:49;;;;;;;8.07;7.00;;;12.00;99.90;;;;;;4918815;29;20226;-85
2022/05/01 02:05:18;;;;;;;6.90;6.03;;;12.00;99.90;;;;;;4918965;29;20213;-85
2022/05/01 02:07:46;;;;;;;6.88;6.18;;;12.00;99.90;;;;;;4918899;29;20290;-85
2022/05/01 02:10:16;;;;;;;6.80;6.18;;;11.90;99.90;;;;;;4918646;29;20241;-85
2022/05/01 02:12:45;;;;;;;9.07;6.10;;;11.90;99.90;;;;;;4918593;29;20317;-85
2022/05/01 02:15:13;;;;;;;7.22;6.55;;;11.90;99.90;;;;;;4919245;29;20285;-85
2022/05/01 02:17:41;;;;;;;7.63;6.90;;;11.90;99.90;;;;;;4917944;29;20321;-85
2022/05/01 02:20:11;;;;;;;6.47;5.88;;;11.90;99.90;;;;;;4918443;29;20218;-85
2022/05/01 02:22:42;;;;;;;6.25;5.75;;;11.90;99.90;;;;;;4918328;29;20321;-84
2022/05/01 02:25:10;;;;;;;7.20;6.53;;;11.90;99.90;;;;;;4918484;29;20298;-85
2022/05/01 02:27:40;;;;;;;6.90;6.03;;;11.80;99.90;;;;;;4918769;29;20310;-84
2022/05/01 02:30:11;;;;;;;7.65;7.03;;;11.80;99.90;;;;;;4918059;29;20219;-85
2022/05/01 02:32:40;;;;;;;9.25;6.70;;;11.80;99.90;;;;;;4918302;29;20257;-85
2022/05/01 02:35:10;;;;;;;8.15;7.35;;;11.80;99.90;;;;;;4918310;29;20302;-85
2022/05/01 02:37:38;;;;;;;8.35;7.53;;;11.80;99.90;;;;;;4917886;29;20314;-84
2022/05/01 02:40:08;;;;;;;6.57;5.97;;;11.70;99.90;;;;;;4918587;29;20298;-84
2022/05/01 02:42:36;;;;;;;6.63;6.03;;;11.70;99.90;;;;;;4918460;29;20259;-85
2022/05/01 02:45:07;;;;;;;15.70;6.15;;;11.70;99.90;;;;;;4917310;29;20266;-85
2022/05/01 02:47:35;;;;;;;7.75;6.93;;;11.70;99.90;;;;;;4917650;29;20198;-84
2022/05/01 02:50:04;;;;;;;6.90;6.30;;;11.60;99.90;;;;;;4917817;29;20297;-85
2022/05/01 02:52:32;;;;;;;6.95;6.32;;;11.60;99.90;;;;;;4917988;29;20290;-84
2022/05/01 02:55:00;;;;;;;12.82;6.72;;;11.60;99.90;;;;;;4918499;29;20289;-85
2022/05/01 02:57:29;;;;;;;13.48;7.38;;;11.60;99.90;;;;;;4917827;29;20309;-85
2022/05/01 02:59:57;;;;;;;7.10;6.40;;;11.60;99.90;;;;;;4918069;29;20298;-84
2022/05/01 03:02:27;;;;;;;7.15;6.13;;;11.60;99.90;;;;;;4917642;29;20305;-84
2022/05/01 03:04:56;;;;;;;10.50;7.28;;;11.60;99.90;;;;;;4918040;29;20217;-85
2022/05/01 03:07:24;;;;;;;6.45;5.85;;;11.50;99.90;;;;;;4918156;29;20210;-84
2022/05/01 03:09:53;;;;;;;7.85;7.05;;;11.50;99.90;;;;;;4917774;29;20237;-85
2022/05/01 03:12:22;;;;;;;6.93;6.22;;;11.50;99.90;;;;;;4917215;29;20314;-85
2022/05/01 03:14:50;;;;;;;9.77;7.25;;;11.50;99.90;;;;;;4917575;29;20310;-85
2022/05/01 03:17:19;;;;;;;12.73;6.82;;;11.50;99.90;;;;;;4917569;29;20253;-84
2022/05/01 03:22:34;;;;;;;6.97;6.35;;;11.50;99.90;;;;;;4917319;29;20313;-85
2022/05/01 03:25:02;;;;;;;7.05;6.35;;;11.50;99.90;;;;;;4917301;29;20206;-85
2022/05/01 03:27:31;;;;;;;8.20;7.03;;;11.50;99.90;;;;;;4916975;29;20262;-85
2022/05/01 03:30:17;;;;;;;7.30;5.90;;;11.50;99.90;;;;;;4917350;29;20293;-85
2022/05/01 03:32:45;;;;;;;8.20;7.38;;;11.50;99.90;;;;;;4917546;29;20321;-84
2022/05/01 03:35:15;;;;;;;7.72;7.10;;;11.40;99.90;;;;;;4917293;29;20293;-84
2022/05/01 03:37:44;;;;;;;6.53;6.03;;;11.40;99.90;;;;;;4917256;29;20226;-84
2022/05/01 03:40:14;;;;;;;8.75;7.32;;;11.40;99.90;;;;;;4916728;29;20203;-84
2022/05/01 03:42:43;;;;;;;6.88;6.28;;;11.40;99.90;;;;;;4917201;29;20226;-84
2022/05/01 03:45:12;;;;;;;8.10;7.30;;;11.40;99.90;;;;;;4916923;29;20215;-85
2022/05/01 03:47:40;;;;;;;7.90;7.10;;;11.40;99.90;;;;;;4916972;29;20302;-83
2022/05/01 03:50:09;;;;;;;11.63;6.35;;;11.40;99.90;;;;;;4916521;29;20210;-85
2022/05/01 03:52:39;;;;;;;8.48;7.45;;;11.40;99.90;;;;;;4916623;29;20322;-85
2022/05/01 03:55:08;;;;;;;6.25;5.72;;;11.40;99.90;;;;;;4916977;29;20203;-84
2022/05/01 03:57:37;;;;;;;7.20;6.55;;;11.40;99.90;;;;;;4916344;29;20281;-84
2022/05/01 04:00:10;;;;;;;7.28;6.63;;;11.50;99.90;;;;;;4917093;29;20210;-84
2022/05/01 04:02:43;;;;;;;6.53;5.93;;;11.50;99.90;;;;;;4916545;29;20245;-83
2022/05/01 04:05:11;;;;;;;6.90;6.15;;;11.50;99.90;;;;;;4916736;29;20213;-84
2022/05/01 04:07:41;;;;;;;7.95;7.15;;;11.50;99.90;;;;;;4916612;29;20258;-84
2022/05/01 04:10:11;;;;;;;8.07;6.40;;;11.60;99.90;;;;;;4916754;29;20306;-85
2022/05/01 04:12:40;;;;;;;7.28;6.63;;;11.70;99.90;;;;;;4916700;29;20304;-84
2022/05/01 04:15:09;;;;;;;8.23;6.68;;;11.60;99.90;;;;;;4916715;29;20297;-85
2022/05/01 04:17:39;;;;;;;7.22;6.57;;;11.70;99.90;;;;;;4916310;29;20230;-84
2022/05/01 04:20:09;;;;;;;7.95;7.10;;;11.60;99.90;;;;;;4916878;29;20226;-84
2022/05/01 04:22:38;;;;;;;7.43;6.68;;;11.70;99.90;;;;;;4916495;29;20234;-84
2022/05/01 04:25:16;;;;;;;10.50;7.85;;;11.70;99.90;;;;;;4916852;29;20244;-84
2022/05/01 04:27:46;;;;;;;6.57;5.97;;;11.70;99.90;;;;;;4916633;29;20237;-84
2022/05/01 04:30:16;;;;;;;9.00;6.78;;;11.70;99.90;;;;;;4916214;29;20233;-84
2022/05/01 04:32:49;;;;;;;7.35;6.60;;;11.80;99.90;;;;;;4908847;29;20259;-84
2022/05/01 04:35:28;;;;;;;8.07;6.72;;;11.80;99.90;;;;;;4916295;29;20274;-85
2022/05/01 04:38:00;;;;;;;7.80;7.10;;;11.80;99.90;;;;;;4916486;29;20290;-84
2022/05/01 04:40:31;;;;;;;6.55;6.03;;;11.80;99.90;;;;;;4916395;29;20218;-84
2022/05/01 04:43:04;;;;;;;6.70;6.10;;;11.80;99.90;;;;;;4916243;29;20262;-84
2022/05/01 04:45:33;;;;;;;6.90;6.30;;;11.80;99.90;;;;;;4916294;29;20217;-84
2022/05/01 04:48:02;;;;;;;8.50;6.50;;;11.90;99.90;;;;;;4916083;29;20212;-84
2022/05/01 04:50:31;;;;;;;7.78;6.93;;;11.90;99.90;;;;;;4916127;29;20273;-84
2022/05/01 04:53:01;;;;;;;6.18;5.63;;;12.00;99.90;;;;;;4916165;29;20309;-84
2022/05/01 04:55:31;;;;;;;7.38;5.80;;;12.00;99.90;;;;;;4916455;29;20214;-84
2022/05/01 04:58:00;;;;;;;6.90;6.30;;;12.00;99.90;;;;;;4916099;29;20333;-84
2022/05/01 05:00:29;;;;;;;6.55;5.90;;;12.00;99.90;;;;;;4916055;29;20207;-84
2022/05/01 05:02:57;;;;;;;6.80;6.28;;;12.00;99.90;;;;;;4916128;29;20261;-84
2022/05/01 05:05:27;;;;;;;7.72;7.03;;;12.10;99.90;;;;;;4916359;29;20217;-85
2022/05/01 05:09:53;;;;;;;7.38;6.65;;;12.10;99.90;;;;;;4916589;29;20282;-85
2022/05/01 05:10:46;;;;;;;11.60;7.38;;;12.20;99.90;;;;;;4919588;29;20234;-84
2022/05/01 05:13:22;;;;;;;7.32;6.63;;;12.20;99.90;;;;;;4919807;29;20242;-84
2022/05/01 05:15:51;;;;;;;8.63;6.93;;;12.10;99.90;;;;;;4919758;29;20234;-84
2022/05/01 05:18:19;;;;;;;7.07;6.47;;;12.20;99.90;;;;;;4919344;29;20237;-85
2022/05/01 05:20:47;;;;;;;7.13;6.53;;;12.20;99.90;;;;;;4919232;29;20277;-84
2022/05/01 05:23:17;;;;;;;10.82;6.88;;;12.20;99.90;;;;;;4919636;29;20303;-84
2022/05/01 05:25:47;;;;;;;7.03;6.43;;;12.30;99.90;;;;;;4919696;29;20210;-83
2022/05/01 05:28:15;;;;;;;7.30;6.30;;;12.30;99.90;;;;;;4919486;29;20245;-83
2022/05/01 05:30:43;;;;;;;8.10;6.95;;;12.30;99.90;;;;;;4919061;29;20241;-84
2022/05/01 05:33:12;;;;;;;7.03;6.40;;;12.40;99.90;;;;;;4919773;29;20260;-84
2022/05/01 05:35:40;;;;;;;7.00;6.40;;;12.50;99.90;;;;;;4919322;29;20261;-84
2022/05/01 05:38:08;;;;;;;7.63;6.40;;;12.50;99.90;;;;;;4919275;29;20246;-84
2022/05/01 05:40:38;;;;;;;7.05;6.45;;;12.60;99.90;;;;;;4919107;29;20210;-83
2022/05/01 05:43:08;;;;;;;7.55;6.85;;;12.70;99.90;;;;;;4918991;29;20298;-84
2022/05/01 05:45:37;;;;;;;8.23;7.25;;;12.70;99.90;;;;;;4919203;29;20210;-84
2022/05/01 05:48:06;;;;;;;7.60;6.82;;;12.80;99.90;;;;;;4919216;29;20214;-84
2022/05/01 05:50:35;;;;;;;7.25;6.55;;;12.80;99.90;;;;;;4919083;29;20213;-84
2022/05/01 05:53:03;;;;;;;6.80;6.13;;;12.80;99.90;;;;;;4919013;29;20286;-84
2022/05/01 05:55:33;;;;;;;7.53;6.75;;;12.80;99.90;;;;;;4919027;29;20207;-83
2022/05/01 05:58:02;;;;;;;6.95;6.28;;;12.90;99.90;;;;;;4919233;29;20313;-85
2022/05/01 06:00:32;;;;;;;8.95;6.18;;;12.90;99.90;;;;;;4918657;29;20310;-84
2022/05/01 06:03:01;;;;;;;6.90;6.28;;;12.90;99.90;;;;;;4918951;29;20250;-84
2022/05/01 06:05:30;;;;;;;8.00;7.20;;;13.00;99.90;;;;;;4918801;29;20293;-84
2022/05/01 06:07:58;;;;;;;6.75;6.00;;;13.00;99.90;;;;;;4918702;29;20202;-84
2022/05/01 06:10:27;;;;;;;6.97;6.38;;;13.00;99.90;;;;;;4918714;29;20218;-84
2022/05/01 06:12:55;;;;;;;6.85;6.28;;;13.00;99.90;;;;;;4918853;29;20313;-84
2022/05/01 06:15:23;;;;;;;6.55;5.95;;;13.10;99.90;;;;;;4918715;29;20281;-84
2022/05/01 06:17:53;;;;;;;7.28;6.57;;;13.30;99.90;;;;;;4918472;29;20317;-84
2022/05/01 06:20:22;;;;;;;7.95;7.13;;;13.40;99.90;;;;;;4917963;29;20222;-84
2022/05/01 06:22:51;;;;;;;6.18;5.22;;;13.50;99.90;;;;;;4918698;29;20254;-84
2022/05/01 06:25:19;;;;;;;8.07;6.90;;;13.70;99.90;;;;;;4918685;29;20302;-84
2022/05/01 06:27:48;;;;;;;7.47;6.03;;;13.90;99.90;;;;;;4918421;29;20234;-84
2022/05/01 06:30:16;;;;;;;6.53;5.93;;;14.00;99.90;;;;;;4918068;29;20297;-84
2022/05/01 06:32:45;;;;;;;9.18;6.38;;;14.20;99.90;;;;;;4918274;29;20317;-83
2022/05/01 06:35:16;;;;;;;6.18;5.68;;;14.20;99.90;;;;;;4918689;29;20214;-84
2022/05/01 06:37:45;;;;;;;8.52;6.47;;;14.30;99.90;;;;;;4918309;29;20269;-84
2022/05/01 06:40:14;;;;;;;7.20;6.07;;;14.30;99.90;;;;;;4918213;29;20218;-84
2022/05/01 06:42:48;;;;;;;7.57;6.88;;;14.40;99.90;;;;;;4918192;29;20313;-84
2022/05/01 06:45:17;;;;;;;6.45;5.90;;;14.50;99.90;;;;;;4918176;29;20211;-84
2022/05/01 06:47:45;;;;;;;6.05;5.55;;;14.60;99.90;;;;;;4918041;29;20270;-84
2022/05/01 06:50:15;;;;;;;6.45;5.85;;;14.70;99.90;;;;;;4917975;29;20290;-84
2022/05/01 06:52:43;;;;;;;8.80;6.60;;;14.80;99.90;;;;;;4918096;29;20262;-85
2022/05/01 06:55:11;;;;;;;6.57;5.82;;;14.80;99.90;;;;;;4918140;29;20297;-84
2022/05/01 06:57:40;;;;;;;6.80;6.18;;;14.90;99.90;;;;;;4917989;29;20270;-84
2022/05/01 07:00:09;;;;;;;8.80;6.43;;;15.00;99.90;;;;;;4917405;29;20250;-84
2022/05/01 07:02:37;;;;;;;7.10;6.20;;;15.20;99.90;;;;;;4918269;29;20294;-84
2022/05/01 07:05:06;;;;;;;7.45;6.05;;;15.40;99.90;;;;;;4917590;29;20230;-85
2022/05/01 07:07:36;;;;;;;5.63;5.05;;;15.70;99.90;;;;;;4917800;29;20210;-84
2022/05/01 07:10:05;;;;;;;6.63;6.13;;;16.00;99.90;;;;;;4917531;29;20297;-83
2022/05/01 07:12:34;;;;;;;5.22;4.78;;;16.10;99.90;;;;;;4917262;29;20227;-84
2022/05/01 07:15:02;;;;;;;6.63;6.03;;;16.30;99.90;;;;;;4917960;29;20271;-84
2022/05/01 07:17:30;;;;;;;6.05;5.20;;;16.30;99.90;;;;;;4917817;29;20305;-84
2022/05/01 07:19:58;;;;;;;5.15;4.75;;;16.40;99.90;;;;;;4917077;29;20286;-84
2022/05/01 07:22:27;;;;;;;5.68;5.18;;;16.40;99.90;;;;;;4917164;29;20291;-84
2022/05/01 07:24:57;;;;;;;5.88;5.18;;;16.50;99.90;;;;;;4917539;29;20289;-84
2022/05/01 07:27:25;;;;;;;5.50;5.00;;;16.70;99.90;;;;;;4917376;29;20286;-84
2022/05/01 07:29:53;;;;;;;5.28;4.85;;;17.00;99.90;;;;;;4917664;29;20231;-84
2022/05/01 07:32:25;;;;;;;5.85;5.35;;;17.20;99.90;;;;;;4916791;29;20229;-84
2022/05/01 07:34:54;;;;;;;5.60;5.07;;;17.40;99.90;;;;;;4917362;29;20302;-84
2022/05/01 07:37:24;;;;;;;5.45;4.95;;;17.70;99.90;;;;;;4917105;29;20234;-84
2022/05/01 07:39:54;;;;;;;5.00;4.50;;;17.60;99.90;;;;;;4916784;29;20226;-84
2022/05/01 07:42:24;;;;;;;4.82;4.43;;;17.70;99.90;;;;;;4916991;29;20250;-84
2022/05/01 07:44:53;;;;;;;5.13;4.70;;;17.70;99.90;;;;;;4917254;29;20306;-84
2022/05/01 07:47:21;;;;;;;5.43;4.93;;;17.60;99.90;;;;;;4917164;29;20234;-84
2022/05/01 07:49:49;;;;;;;5.20;4.78;;;17.60;99.90;;;;;;4916567;29;20297;-84
2022/05/01 07:52:18;;;;;;;5.50;5.00;;;17.50;99.90;;;;;;4916638;29;20293;-83
2022/05/01 07:54:46;;;;;;;5.93;5.38;;;17.20;99.90;;;;;;4916980;29;20289;-84
2022/05/01 07:57:14;;;;;;;5.45;4.95;;;16.90;99.90;;;;;;4917037;29;20246;-84
2022/05/01 07:59:44;;;;;;;5.75;5.20;;;16.70;99.90;;;;;;4916526;29;20230;-84
2022/05/01 08:02:13;;;;;;;6.18;5.57;;;16.60;99.90;;;;;;4916428;29;20238;-84
2022/05/01 08:04:40;;;;;;;6.22;5.63;;;16.40;99.90;;;;;;4916912;29;20215;-84
2022/05/01 08:07:15;;;;;;;5.93;5.43;;;16.40;99.90;;;;;;4916949;29;20206;-84
2022/05/01 08:09:43;;;;;;;5.35;4.70;;;16.20;99.90;;;;;;4916845;29;20218;-84
2022/05/01 08:12:12;;;;;;;5.32;4.68;;;16.00;99.90;;;;;;4916346;29;20239;-84
2022/05/01 08:14:48;;;;;;;5.45;4.97;;;16.10;99.90;;;;;;4916591;29;20238;-84
2022/05/01 08:17:16;;;;;;;5.22;4.72;;;16.10;99.90;;;;;;4916262;29;20305;-84
2022/05/01 08:22:30;;;;;;;7.03;6.25;;;16.30;99.90;;;;;;4916414;29;20230;-84
2022/05/01 08:24:58;;;;;;;12.15;4.90;;;16.50;99.90;;;;;;4916450;29;20206;-84
2022/05/01 08:27:27;;;;;;;5.18;4.70;;;16.60;99.90;;;;;;4916417;29;20281;-84
2022/05/01 08:29:57;;;;;;;6.65;5.30;;;16.80;99.90;;;;;;4916437;29;20218;-84
2022/05/01 08:32:26;;;;;;;7.72;5.43;;;16.90;99.90;;;;;;4916576;29;20250;-84
2022/05/01 08:34:54;;;;;;;7.93;6.47;;;16.80;99.90;;;;;;4916503;29;20206;-84
2022/05/01 08:37:22;;;;;;;5.57;5.07;;;16.70;99.90;;;;;;4916237;29;20302;-84
2022/05/01 08:39:51;;;;;;;6.40;5.85;;;16.70;99.90;;;;;;4916163;29;20286;-84
2022/05/01 08:42:19;;;;;;;6.38;5.72;;;16.50;99.90;;;;;;4916017;29;20230;-84
2022/05/01 08:44:49;;;;;;;4.95;4.55;;;16.40;99.90;;;;;;4918994;29;20214;-84
2022/05/01 08:47:27;;;;;;;11.65;6.55;;;16.30;99.90;;;;;;4920486;29;20206;-84
2022/05/01 08:49:59;;;;;;;6.47;5.88;;;16.40;99.90;;;;;;4920089;29;20297;-84
2022/05/01 08:52:29;;;;;;;6.72;5.57;;;16.40;99.90;;;;;;4920031;29;20320;-84
2022/05/01 08:54:59;;;;;;;5.70;5.25;;;16.30;99.90;;;;;;4920111;29;20210;-84
2022/05/01 08:57:32;;;;;;;6.32;5.72;;;16.40;99.90;;;;;;4920377;29;20237;-85
2022/05/01 09:00:01;;;;;;;6.10;5.60;;;16.60;99.90;;;;;;4919871;29;20317;-84
2022/05/01 09:02:33;;;;;;;6.40;5.45;;;16.70;99.90;;;;;;4920049;29;20237;-84
2022/05/01 09:05:01;;;;;;;5.90;5.40;;;16.70;99.90;;;;;;4919885;29;20215;-84
2022/05/01 09:07:30;;;;;;;5.90;5.40;;;16.80;99.90;;;;;;4919893;29;20274;-84
2022/05/01 09:09:58;;;;;;;5.63;5.13;;;16.80;99.90;;;;;;4920218;29;20199;-84
2022/05/01 09:15:13;;;;;;;5.25;4.80;;;16.60;99.90;;;;;;4919909;29;20262;-84
2022/05/01 09:18:00;;;;;;;5.75;5.28;;;16.60;99.90;;;;;;4919845;29;20248;-84
2022/05/01 09:20:29;;;;;;;4.95;4.55;;;16.60;99.90;;;;;;4919249;29;20276;-85
2022/05/01 09:22:58;;;;;;;6.00;5.47;;;16.50;99.90;;;;;;4919576;29;20269;-84
2022/05/01 09:25:28;;;;;;;6.00;5.40;;;16.50;99.90;;;;;;4919553;29;20214;-84
2022/05/01 09:27:59;;;;;;;6.28;5.78;;;16.40;99.90;;;;;;4919621;29;20202;-84
2022/05/01 09:30:32;;;;;;;6.25;5.65;;;16.40;99.90;;;;;;4919344;29;20210;-84
2022/05/01 09:33:03;;;;;;;6.18;5.20;;;16.40;99.90;;;;;;4919414;29;20238;-84
2022/05/01 09:35:33;;;;;;;5.78;5.35;;;16.30;99.90;;;;;;4919530;29;20238;-83
2022/05/01 09:38:26;;;;;;;5.47;4.65;;;16.20;99.90;;;;;;4919202;29;20234;-84
2022/05/01 09:40:57;;;;;;;5.60;5.00;;;16.00;99.90;;;;;;4905690;29;20238;-84
2022/05/01 09:43:37;;;;;;;7.57;5.90;;;15.90;99.90;;;;;;4919336;29;20246;-84
2022/05/01 09:46:16;;;;;;;5.00;4.60;;;15.70;99.90;;;;;;4919463;29;20210;-84
2022/05/01 09:48:59;;;;;;;5.25;4.75;;;15.60;99.90;;;;;;4919388;29;20210;-84
2022/05/01 09:51:29;;;;;;;6.32;5.65;;;15.40;99.90;;;;;;4918722;29;20227;-84
2022/05/01 09:53:59;;;;;;;7.03;6.22;;;15.20;99.90;;;;;;4919262;29;20298;-84
2022/05/01 09:56:27;;;;;;;6.75;6.03;;;15.00;99.90;;;;;;4919142;29;20270;-85
2022/05/01 09:59:00;;;;;;;5.68;5.18;;;14.80;99.90;;;;;;4918969;29;20292;-86
2022/05/01 10:01:29;;;;;;;7.43;6.70;;;14.70;99.90;;;;;;4918538;29;20287;-86
2022/05/01 10:04:01;;;;;;;8.80;6.32;;;14.60;99.90;;;;;;4918819;29;20211;-85
2022/05/01 10:06:32;;;;;;;6.45;5.82;;;14.40;99.90;;;;;;4918885;29;20218;-86
2022/05/01 10:09:01;;;;;;;8.00;5.57;;;14.40;99.90;;;;;;4919129;29;20238;-85
2022/05/01 10:11:30;;;;;;;6.85;6.25;;;14.30;99.90;;;;;;4918542;29;20254;-85
2022/05/01 10:14:00;;;;;;;6.53;5.95;;;14.20;99.90;;;;;;4918562;29;20278;-85
2022/05/01 10:16:28;;;;;;;6.22;5.60;;;14.20;99.90;;;;;;4919017;29;20207;-85
2022/05/01 10:19:00;;;;;;;7.90;7.15;;;14.20;99.90;;;;;;4919067;29;20225;-86
2022/05/01 10:21:48;;;;;;;9.60;7.30;;;14.20;99.90;;;;;;4917864;29;20245;-85
2022/05/01 10:24:18;;;;;;;6.47;5.95;;;14.30;99.90;;;;;;4918638;29;20246;-85
2022/05/01 10:26:52;;;;;;;9.80;7.45;;;14.40;99.90;;;;;;4918749;29;20219;-85
2022/05/01 10:33:08;;;;;;;6.75;6.13;;;14.60;99.90;;;;;;4917626;29;20226;-85
2022/05/01 10:36:02;;;;;;;6.60;6.00;;;14.70;99.90;;;;;;4918336;29;20326;-85
2022/05/01 10:38:40;;;;;;;8.20;6.07;;;14.70;99.90;;;;;;4918324;29;20258;-84
2022/05/01 10:41:11;;;;;;;7.60;6.05;;;14.70;99.90;;;;;;4917831;29;20254;-85
2022/05/01 10:43:55;;;;;;;8.45;5.32;;;14.60;99.90;;;;;;4918800;29;20214;-85
2022/05/01 10:46:31;;;;;;;6.75;6.10;;;14.50;99.90;;;;;;4918390;29;20218;-85
2022/05/01 10:49:04;;;;;;;8.15;7.32;;;14.50;99.90;;;;;;4918446;29;20233;-85
2022/05/01 10:51:49;;;;;;;7.43;6.78;;;14.50;99.90;;;;;;4917588;29;20250;-85
2022/05/01 10:54:37;;;;;;;7.05;6.35;;;14.50;99.90;;;;;;4918314;29;20218;-85
2022/05/01 10:57:14;;;;;;;6.32;5.82;;;14.50;99.90;;;;;;4918106;29;20216;-85
2022/05/01 11:00:05;;;;;;;6.68;6.18;;;14.50;99.90;;;;;;4917908;29;20249;-85
2022/05/01 11:02:46;;;;;;;6.50;5.90;;;14.40;99.90;;;;;;4917893;29;20310;-86
2022/05/01 11:05:41;;;;;;;5.53;5.13;;;14.20;99.90;;;;;;4917905;29;20238;-85
2022/05/01 11:08:16;;;;;;;7.75;7.05;;;14.00;99.90;;;;;;4917256;29;20246;-85
2022/05/01 11:10:45;;;;;;;8.02;7.32;;;13.90;99.90;;;;;;4917535;29;20293;-86
2022/05/01 11:13:31;;;;;;;9.23;8.50;;;13.60;99.90;;;;;;4917629;29;20303;-85
2022/05/01 11:16:00;;;;;;;11.00;9.88;;;13.50;99.90;;;;;;4917766;29;20214;-85
2022/05/01 11:18:31;;;;;;;11.23;10.13;;;13.40;99.90;;;;;;4917249;29;20274;-85
2022/05/01 11:21:33;;;;;;;9.30;8.40;;;13.20;99.90;;;;;;4917013;29;20226;-84
2022/05/01 11:24:04;;;;;;;9.05;8.23;;;13.20;99.90;;;;;;4917237;29;20274;-84
2022/05/01 11:26:34;;;;;;;8.32;7.53;;;13.10;99.90;;;;;;4917625;29;20234;-85
2022/05/01 11:29:13;;;;;;;7.88;7.13;;;13.10;99.90;;;;;;4917259;29;20229;-84
2022/05/01 11:31:51;;;;;;;10.77;8.20;;;13.00;99.90;;;;;;4917411;29;20230;-84
2022/05/01 11:34:51;;;;;;;12.05;8.27;;;13.00;99.90;;;;;;4917533;29;20213;-84
2022/05/01 11:37:21;;;;;;;8.85;8.05;;;13.00;99.90;;;;;;4917254;29;20234;-85
2022/05/01 11:40:21;;;;;;;8.43;7.65;;;13.00;99.90;;;;;;4917267;29;20234;-85
2022/05/01 11:42:50;;;;;;;8.00;7.30;;;13.10;99.90;;;;;;4917480;29;20272;-84
2022/05/01 11:45:19;;;;;;;8.75;7.95;;;13.20;99.90;;;;;;4917235;29;20214;-85
2022/05/01 11:47:55;;;;;;;7.70;6.90;;;13.40;99.90;;;;;;4909672;29;20214;-85
2022/05/01 11:50:27;;;;;;;7.22;6.45;;;13.50;99.90;;;;;;4917039;29;20237;-85
2022/05/01 11:52:56;;;;;;;6.75;6.05;;;13.60;99.90;;;;;;4917197;29;20234;-85
2022/05/01 12:02:24;;;;;;;8.98;7.07;;;13.70;99.90;;;;;;4916980;29;20323;-85
2022/05/01 12:03:54;;;;;;;5.85;5.22;;;14.10;99.90;;;;;;4916883;29;20230;-84
2022/05/01 12:06:26;;;;;;;6.82;5.28;;;14.10;99.90;;;;;;4916740;29;20269;-85
2022/05/01 12:08:55;;;;;;;7.53;5.68;;;14.20;99.90;;;;;;4917120;29;20285;-85
2022/05/01 12:11:32;;;;;;;4.75;4.35;;;14.20;99.90;;;;;;4916669;29;20206;-84
2022/05/01 12:14:07;;;;;;;5.63;5.13;;;14.30;99.90;;;;;;4916882;29;20301;-84
2022/05/01 12:16:35;;;;;;;5.22;4.78;;;14.40;99.90;;;;;;4916949;29;20305;-84
2022/05/01 12:19:05;;;;;;;3.72;3.47;;;14.40;99.90;;;;;;4916306;29;20216;-85
2022/05/01 12:21:35;;;;;;;3.35;3.05;;;14.40;99.90;;;;;;4916174;29;20258;-84
2022/05/01 12:24:06;;;;;;;4.20;3.88;;;14.40;99.90;;;;;;4916953;29;20234;-84
2022/05/01 12:26:39;;;;;;;3.38;3.10;;;14.40;99.90;;;;;;4916852;29;20305;-84
2022/05/01 12:29:09;;;;;;;4.88;3.83;;;14.50;99.90;;;;;;4916646;29;20254;-84
2022/05/01 12:31:59;;;;;;;3.03;2.83;;;14.70;99.90;;;;;;4916128;29;20249;-84
2022/05/01 12:34:29;;;;;;;2.63;2.47;;;14.80;99.90;;;;;;4916711;29;20218;-84
2022/05/01 12:36:58;;;;;;;2.92;2.72;;;14.90;99.90;;;;;;4916412;29;20245;-84
2022/05/01 12:39:28;;;;;;;2.60;2.40;;;15.00;99.90;;;;;;4916523;29;20214;-84
2022/05/01 12:45:13;;;;;;;12.02;10.40;;;15.20;99.90;;;;;;4916502;29;20238;-84
2022/05/01 12:47:43;;;;;;;9.65;7.85;;;15.30;99.90;;;;;;4916339;29;20234;-84
2022/05/01 12:50:24;;;;;;;6.65;5.20;;;15.50;99.90;;;;;;4916408;29;20210;-84
2022/05/01 12:52:59;;;;;;;3.83;3.53;;;15.70;99.90;;;;;;4916512;29;20309;-83
2022/05/01 12:55:35;;;;;;;4.55;4.07;;;15.70;99.90;;;;;;4916667;29;20213;-83
2022/05/01 12:58:07;;;;;;;4.90;4.45;;;15.70;99.90;;;;;;4916513;29;20238;-84
2022/05/01 13:00:38;;;;;;;4.78;4.20;;;15.90;99.90;;;;;;4916346;29;20214;-84
2022/05/01 13:03:24;;;;;;;3.75;3.45;;;15.90;99.90;;;;;;4916140;29;20322;-84
2022/05/01 13:06:02;;;;;;;4.55;4.15;;;16.00;99.90;;;;;;4916601;29;20234;-83
2022/05/01 13:08:32;;;;;;;9.13;4.03;;;16.00;99.90;;;;;;4916110;29;20272;-84
2022/05/01 13:11:11;;;;;;;4.10;3.40;;;16.00;99.90;;;;;;4916074;29;20214;-83
2022/05/01 13:13:46;;;;;;;3.58;3.30;;;15.90;99.90;;;;;;4916262;29;20241;-83
2022/05/01 13:16:15;;;;;;;3.30;3.00;;;15.90;99.90;;;;;;4916302;29;20246;-83
2022/05/01 13:18:44;;;;;;;2.50;2.35;;;16.00;99.90;;;;;;4916020;29;20273;-83
2022/05/01 13:21:13;;;;;;;3.20;2.90;;;16.00;99.90;;;;;;4915719;29;20298;-83
2022/05/01 13:23:42;;;;;;;2.80;2.60;;;16.00;99.90;;;;;;4916105;29;20241;-84
2022/05/01 13:26:10;;;;;;;2.78;2.58;;;16.10;99.90;;;;;;4915558;29;20258;-83
2022/05/01 13:28:39;;;;;;;2.97;2.78;;;16.00;99.90;;;;;;4915999;29;20230;-84
2022/05/01 13:31:08;;;;;;;3.50;2.90;;;16.10;99.90;;;;;;4918892;29;20229;-83
2022/05/01 13:33:36;;;;;;;2.65;2.45;;;16.10;99.90;;;;;;4919542;29;20211;-83
2022/05/01 13:36:05;;;;;;;4.05;3.15;;;16.10;99.90;;;;;;4919538;29;20298;-83